sensor_id;sensor_type;location;lat;lon;timestamp;pressure;altitude;pressure_sealevel;temperature;humidity
12358;BME280;6243;51.244;6.774;2023-02-15T00:00:11;149344.81;;;7.47;100.00
12358;BME280;6243;51.244;6.774;2023-02-15T00:02:37;149275.09;;;7.20;100.00
12358;BME280;6243;51.244;6.774;2023-02-15T00:05:03;149252.28;;;7.10;100.00
12358;BME280;6243;51.244;6.774;2023-02-15T00:07:29;149286.50;;;7.24;100.00
12358;BME280;6243;51.244;6.774;2023-02-15T00:09:54;149210.47;;;6.94;100.00
12358;BME280;6243;51.244;6.774;2023-02-15T00:12:21;149263.69;;;7.15;100.00
12358;BME280;6243;51.244;6.774;2023-02-15T00:14:47;149328.34;;;7.41;100.00
12358;BME280;6243;51.244;6.774;2023-02-15T00:17:13;149335.97;;;7.44;100.00
12358;BME280;6243;51.244;6.774;2023-02-15T00:19:39;149270.03;;;7.18;100.00
12358;BME280;6243;51.244;6.774;2023-02-15T00:22:04;149187.66;;;6.85;100.00
12358;BME280;6243;51.244;6.774;2023-02-15T00:24:30;149289.06;;;7.25;100.00
12358;BME280;6243;51.244;6.774;2023-02-15T00:26:55;149256.06;;;7.12;100.00
12358;BME280;6243;51.244;6.774;2023-02-15T00:29:22;149247.22;;;7.08;100.00
12358;BME280;6243;51.244;6.774;2023-02-15T00:31:48;149278.88;;;7.21;100.00
12358;BME280;6243;51.244;6.774;2023-02-15T00:34:15;149234.53;;;7.03;100.00
12358;BME280;6243;51.244;6.774;2023-02-15T00:36:42;149264.97;;;7.15;100.00
12358;BME280;6243;51.244;6.774;2023-02-15T00:39:07;149271.31;;;7.18;100.00
12358;BME280;6243;51.244;6.774;2023-02-15T00:41:33;149356.22;;;7.52;100.00
12358;BME280;6243;51.244;6.774;2023-02-15T00:43:59;149225.69;;;7.00;100.00
12358;BME280;6243;51.244;6.774;2023-02-15T00:46:26;149263.69;;;7.15;100.00
12358;BME280;6243;51.244;6.774;2023-02-15T00:48:52;149245.94;;;7.08;100.00
12358;BME280;6243;51.244;6.774;2023-02-15T00:51:17;149243.44;;;7.07;100.00
12358;BME280;6243;51.244;6.774;2023-02-15T00:53:43;149292.84;;;7.27;100.00
12358;BME280;6243;51.244;6.774;2023-02-15T00:56:09;149267.47;;;7.16;100.00
12358;BME280;6243;51.244;6.774;2023-02-15T00:58:35;149354.94;;;7.51;100.00
12358;BME280;6243;51.244;6.774;2023-02-15T01:01:03;149329.63;;;7.41;100.00
12358;BME280;6243;51.244;6.774;2023-02-15T01:03:31;149273.81;;;7.19;100.00
12358;BME280;6243;51.244;6.774;2023-02-15T01:05:56;149315.66;;;7.36;100.00
12358;BME280;6243;51.244;6.774;2023-02-15T01:08:22;149296.63;;;7.28;100.00
12358;BME280;6243;51.244;6.774;2023-02-15T01:10:47;149177.53;;;6.81;100.00
12358;BME280;6243;51.244;6.774;2023-02-15T01:13:14;149190.22;;;6.86;100.00
12358;BME280;6243;51.244;6.774;2023-02-15T01:15:40;149235.81;;;7.04;100.00
12358;BME280;6243;51.244;6.774;2023-02-15T01:18:05;149185.16;;;6.84;100.00
12358;BME280;6243;51.244;6.774;2023-02-15T01:20:36;149218.09;;;6.97;100.00
12358;BME280;6243;51.244;6.774;2023-02-15T01:23:02;149187.66;;;6.85;100.00
12358;BME280;6243;51.244;6.774;2023-02-15T01:25:27;149301.69;;;7.30;100.00
12358;BME280;6243;51.244;6.774;2023-02-15T01:27:53;149197.81;;;6.89;100.00
12358;BME280;6243;51.244;6.774;2023-02-15T01:30:19;149190.22;;;6.86;100.00
12358;BME280;6243;51.244;6.774;2023-02-15T01:32:44;149133.22;;;6.63;100.00
12358;BME280;6243;51.244;6.774;2023-02-15T01:35:10;149175.03;;;6.80;100.00
12358;BME280;6243;51.244;6.774;2023-02-15T01:37:38;149169.91;;;6.78;100.00
12358;BME280;6243;51.244;6.774;2023-02-15T01:40:05;149191.50;;;6.86;100.00
12358;BME280;6243;51.244;6.774;2023-02-15T01:42:31;149099.00;;;6.50;100.00
12358;BME280;6243;51.244;6.774;2023-02-15T01:44:58;149102.78;;;6.51;100.00
12358;BME280;6243;51.244;6.774;2023-02-15T01:47:29;149173.75;;;6.79;100.00
12358;BME280;6243;51.244;6.774;2023-02-15T01:50:02;149105.34;;;6.52;100.00
12358;BME280;6243;51.244;6.774;2023-02-15T01:52:29;149175.03;;;6.80;100.00
12358;BME280;6243;51.244;6.774;2023-02-15T01:54:56;149125.59;;;6.60;100.00
12358;BME280;6243;51.244;6.774;2023-02-15T01:57:23;149047.09;;;6.29;100.00
12358;BME280;6243;51.244;6.774;2023-02-15T01:59:53;149095.19;;;6.48;100.00
12358;BME280;6243;51.244;6.774;2023-02-15T02:02:20;149124.31;;;6.60;100.00
12358;BME280;6243;51.244;6.774;2023-02-15T02:04:48;149017.97;;;6.17;100.00
12358;BME280;6243;51.244;6.774;2023-02-15T02:07:17;149000.22;;;6.10;100.00
12358;BME280;6243;51.244;6.774;2023-02-15T02:09:44;149050.88;;;6.30;100.00
12358;BME280;6243;51.244;6.774;2023-02-15T02:12:12;149050.88;;;6.30;100.00
12358;BME280;6243;51.244;6.774;2023-02-15T02:14:38;149090.13;;;6.46;100.00
12358;BME280;6243;51.244;6.774;2023-02-15T02:17:09;149128.16;;;6.61;100.00
12358;BME280;6243;51.244;6.774;2023-02-15T02:23:02;149176.25;;;6.80;100.00
12358;BME280;6243;51.244;6.774;2023-02-15T02:32:05;149180.09;;;6.82;100.00
12358;BME280;6243;51.244;6.774;2023-02-15T02:34:41;149143.34;;;6.67;100.00
12358;BME280;6243;51.244;6.774;2023-02-15T02:37:15;149012.91;;;6.15;100.00
12358;BME280;6243;51.244;6.774;2023-02-15T02:39:49;149061.00;;;6.34;100.00
12358;BME280;6243;51.244;6.774;2023-02-15T02:42:23;149139.53;;;6.66;100.00
12358;BME280;6243;51.244;6.774;2023-02-15T02:44:55;149116.75;;;6.57;100.00
12358;BME280;6243;51.244;6.774;2023-02-15T02:47:29;149077.50;;;6.41;100.00
12358;BME280;6243;51.244;6.774;2023-02-15T02:50:00;149017.97;;;6.17;100.00
12358;BME280;6243;51.244;6.774;2023-02-15T02:52:38;149025.56;;;6.20;100.00
12358;BME280;6243;51.244;6.774;2023-02-15T02:55:07;148963.50;;;5.96;100.00
12358;BME280;6243;51.244;6.774;2023-02-15T02:57:35;148976.16;;;6.01;100.00
12358;BME280;6243;51.244;6.774;2023-02-15T03:00:05;149028.06;;;6.21;100.00
12358;BME280;6243;51.244;6.774;2023-02-15T03:02:32;149066.09;;;6.36;100.00
12358;BME280;6243;51.244;6.774;2023-02-15T03:05:04;148950.88;;;5.91;100.00
12358;BME280;6243;51.244;6.774;2023-02-15T03:07:32;148992.63;;;6.07;100.00
12358;BME280;6243;51.244;6.774;2023-02-15T03:10:00;148969.84;;;5.98;100.00
12358;BME280;6243;51.244;6.774;2023-02-15T03:12:28;148936.94;;;5.85;100.00
12358;BME280;6243;51.244;6.774;2023-02-15T03:14:59;148942.00;;;5.87;100.00
12358;BME280;6243;51.244;6.774;2023-02-15T03:17:28;149048.38;;;6.29;100.00
12358;BME280;6243;51.244;6.774;2023-02-15T03:20:00;148983.78;;;6.04;100.00
12358;BME280;6243;51.244;6.774;2023-02-15T03:22:31;149057.22;;;6.33;100.00
12358;BME280;6243;51.244;6.774;2023-02-15T03:25:02;149020.47;;;6.18;100.00
12358;BME280;6243;51.244;6.774;2023-02-15T03:27:33;148911.53;;;5.75;100.00
12358;BME280;6243;51.244;6.774;2023-02-15T03:30:02;148993.91;;;6.08;100.00
12358;BME280;6243;51.244;6.774;2023-02-15T03:32:31;149063.53;;;6.35;100.00
12358;BME280;6243;51.244;6.774;2023-02-15T03:34:57;148886.25;;;5.65;100.00
12358;BME280;6243;51.244;6.774;2023-02-15T03:37:26;148978.72;;;6.02;100.00
12358;BME280;6243;51.244;6.774;2023-02-15T03:39:57;148978.72;;;6.02;100.00
12358;BME280;6243;51.244;6.774;2023-02-15T03:42:26;149012.91;;;6.15;100.00
12358;BME280;6243;51.244;6.774;2023-02-15T03:45:00;149045.81;;;6.28;100.00
12358;BME280;6243;51.244;6.774;2023-02-15T03:47:30;148972.38;;;5.99;100.00
12358;BME280;6243;51.244;6.774;2023-02-15T03:49:59;149052.16;;;6.31;100.00
12358;BME280;6243;51.244;6.774;2023-02-15T03:52:28;149035.69;;;6.24;100.00
12358;BME280;6243;51.244;6.774;2023-02-15T03:54:56;148964.78;;;5.96;100.00
12358;BME280;6243;51.244;6.774;2023-02-15T03:57:23;148981.22;;;6.03;100.00
12358;BME280;6243;51.244;6.774;2023-02-15T03:59:50;148980.00;;;6.02;100.00
12358;BME280;6243;51.244;6.774;2023-02-15T04:02:19;149012.91;;;6.15;100.00
12358;BME280;6243;51.244;6.774;2023-02-15T04:04:47;148950.88;;;5.91;100.00
12358;BME280;6243;51.244;6.774;2023-02-15T04:07:13;148942.00;;;5.87;100.00
12358;BME280;6243;51.244;6.774;2023-02-15T04:09:39;148943.25;;;5.88;100.00
12358;BME280;6243;51.244;6.774;2023-02-15T04:12:06;149007.84;;;6.13;100.00
12358;BME280;6243;51.244;6.774;2023-02-15T04:14:31;148953.38;;;5.92;100.00
12358;BME280;6243;51.244;6.774;2023-02-15T04:16:57;148954.66;;;5.92;100.00
12358;BME280;6243;51.244;6.774;2023-02-15T04:19:22;148828.03;;;5.42;100.00
12358;BME280;6243;51.244;6.774;2023-02-15T04:21:48;148873.59;;;5.60;100.00
12358;BME280;6243;51.244;6.774;2023-02-15T04:24:14;148916.66;;;5.77;100.00
12358;BME280;6243;51.244;6.774;2023-02-15T04:26:40;148906.50;;;5.73;100.00
12358;BME280;6243;51.244;6.774;2023-02-15T04:29:06;148872.31;;;5.59;100.00
12358;BME280;6243;51.244;6.774;2023-02-15T04:31:32;148822.97;;;5.40;100.00
12358;BME280;6243;51.244;6.774;2023-02-15T04:33:58;148911.53;;;5.75;100.00
12358;BME280;6243;51.244;6.774;2023-02-15T04:36:23;148972.38;;;5.99;100.00
12358;BME280;6243;51.244;6.774;2023-02-15T04:38:48;148977.44;;;6.01;100.00
12358;BME280;6243;51.244;6.774;2023-02-15T04:41:14;148839.44;;;5.46;100.00
12358;BME280;6243;51.244;6.774;2023-02-15T04:43:39;148886.25;;;5.65;100.00
12358;BME280;6243;51.244;6.774;2023-02-15T04:46:06;148945.78;;;5.89;100.00
12358;BME280;6243;51.244;6.774;2023-02-15T04:48:32;148914.09;;;5.76;100.00
12358;BME280;6243;51.244;6.774;2023-02-15T04:50:58;148954.66;;;5.92;100.00
12358;BME280;6243;51.244;6.774;2023-02-15T04:53:23;148950.88;;;5.91;100.00
12358;BME280;6243;51.244;6.774;2023-02-15T04:55:48;148887.53;;;5.65;100.00
12358;BME280;6243;51.244;6.774;2023-02-15T04:58:14;148848.25;;;5.50;100.00
12358;BME280;6243;51.244;6.774;2023-02-15T05:00:40;148814.09;;;5.36;100.00
12358;BME280;6243;51.244;6.774;2023-02-15T05:03:07;148855.88;;;5.53;100.00
12358;BME280;6243;51.244;6.774;2023-02-15T05:05:32;148888.78;;;5.66;100.00
12358;BME280;6243;51.244;6.774;2023-02-15T05:07:58;148867.25;;;5.57;100.00
12358;BME280;6243;51.244;6.774;2023-02-15T05:10:23;148933.09;;;5.84;100.00
12358;BME280;6243;51.244;6.774;2023-02-15T05:12:48;148869.81;;;5.58;100.00
12358;BME280;6243;51.244;6.774;2023-02-15T05:15:14;148890.03;;;5.66;100.00
12358;BME280;6243;51.244;6.774;2023-02-15T05:17:40;148838.16;;;5.46;100.00
12358;BME280;6243;51.244;6.774;2023-02-15T05:20:07;148829.31;;;5.42;100.00
12358;BME280;6243;51.244;6.774;2023-02-15T05:22:33;148801.50;;;5.31;100.00
12358;BME280;6243;51.244;6.774;2023-02-15T05:24:58;148868.53;;;5.58;100.00
12358;BME280;6243;51.244;6.774;2023-02-15T05:27:24;148807.81;;;5.34;100.00
12358;BME280;6243;51.244;6.774;2023-02-15T05:29:49;148828.03;;;5.42;100.00
12358;BME280;6243;51.244;6.774;2023-02-15T05:32:15;148891.31;;;5.67;100.00
12358;BME280;6243;51.244;6.774;2023-02-15T05:34:41;148917.88;;;5.78;100.00
12358;BME280;6243;51.244;6.774;2023-02-15T05:37:07;148906.50;;;5.73;100.00
12358;BME280;6243;51.244;6.774;2023-02-15T05:39:33;148936.94;;;5.85;100.00
12358;BME280;6243;51.244;6.774;2023-02-15T05:41:59;148886.25;;;5.65;100.00
12358;BME280;6243;51.244;6.774;2023-02-15T05:44:25;148844.47;;;5.48;100.00
12358;BME280;6243;51.244;6.774;2023-02-15T05:46:53;148860.94;;;5.55;100.00
12358;BME280;6243;51.244;6.774;2023-02-15T05:49:19;148902.72;;;5.71;100.00
12358;BME280;6243;51.244;6.774;2023-02-15T05:51:44;148879.94;;;5.62;100.00
12358;BME280;6243;51.244;6.774;2023-02-15T05:54:11;148863.47;;;5.56;100.00
12358;BME280;6243;51.244;6.774;2023-02-15T05:56:36;148834.38;;;5.44;100.00
12358;BME280;6243;51.244;6.774;2023-02-15T05:59:02;148884.97;;;5.64;100.00
12358;BME280;6243;51.244;6.774;2023-02-15T06:01:28;148877.38;;;5.61;100.00
12358;BME280;6243;51.244;6.774;2023-02-15T06:03:53;148871.09;;;5.59;100.00
12358;BME280;6243;51.244;6.774;2023-02-15T06:06:19;148836.88;;;5.45;100.00
12358;BME280;6243;51.244;6.774;2023-02-15T06:08:44;148849.53;;;5.50;100.00
12358;BME280;6243;51.244;6.774;2023-02-15T06:11:11;148916.66;;;5.77;100.00
12358;BME280;6243;51.244;6.774;2023-02-15T06:13:36;148838.16;;;5.46;100.00
12358;BME280;6243;51.244;6.774;2023-02-15T06:16:02;148835.66;;;5.45;100.00
12358;BME280;6243;51.244;6.774;2023-02-15T06:18:28;148804.00;;;5.32;100.00
12358;BME280;6243;51.244;6.774;2023-02-15T06:20:53;148807.81;;;5.34;100.00
12358;BME280;6243;51.244;6.774;2023-02-15T06:23:19;148782.50;;;5.24;100.00
12358;BME280;6243;51.244;6.774;2023-02-15T06:25:45;148786.28;;;5.25;100.00
12358;BME280;6243;51.244;6.774;2023-02-15T06:28:12;148719.25;;;4.98;100.00
12358;BME280;6243;51.244;6.774;2023-02-15T06:30:37;148710.41;;;4.95;100.00
12358;BME280;6243;51.244;6.774;2023-02-15T06:33:03;148754.66;;;5.13;100.00
12358;BME280;6243;51.244;6.774;2023-02-15T06:35:28;148735.69;;;5.05;100.00
12358;BME280;6243;51.244;6.774;2023-02-15T06:37:54;148719.25;;;4.98;100.00
12358;BME280;6243;51.244;6.774;2023-02-15T06:40:20;148707.88;;;4.94;100.00
12358;BME280;6243;51.244;6.774;2023-02-15T06:42:45;148699.03;;;4.90;100.00
12358;BME280;6243;51.244;6.774;2023-02-15T06:45:12;148701.53;;;4.91;100.00
12358;BME280;6243;51.244;6.774;2023-02-15T06:47:38;148695.22;;;4.89;100.00
12358;BME280;6243;51.244;6.774;2023-02-15T06:50:05;148696.47;;;4.89;100.00
12358;BME280;6243;51.244;6.774;2023-02-15T06:52:31;148728.06;;;5.02;100.00
12358;BME280;6243;51.244;6.774;2023-02-15T06:54:57;148755.94;;;5.13;100.00
12358;BME280;6243;51.244;6.774;2023-02-15T06:57:22;148782.50;;;5.24;100.00
12358;BME280;6243;51.244;6.774;2023-02-15T06:59:48;148716.69;;;4.97;100.00
12358;BME280;6243;51.244;6.774;2023-02-15T07:02:15;148730.63;;;5.03;100.00
12358;BME280;6243;51.244;6.774;2023-02-15T07:04:41;148710.41;;;4.95;100.00
12358;BME280;6243;51.244;6.774;2023-02-15T07:07:08;148729.34;;;5.02;100.00
12358;BME280;6243;51.244;6.774;2023-02-15T07:09:34;148759.72;;;5.15;100.00
12358;BME280;6243;51.244;6.774;2023-02-15T07:12:00;148706.59;;;4.93;100.00
12358;BME280;6243;51.244;6.774;2023-02-15T07:14:25;148739.47;;;5.07;100.00
12358;BME280;6243;51.244;6.774;2023-02-15T07:16:51;148734.41;;;5.04;100.00
12358;BME280;6243;51.244;6.774;2023-02-15T07:19:17;148838.16;;;5.46;100.00
12358;BME280;6243;51.244;6.774;2023-02-15T07:21:43;148726.84;;;5.01;100.00
12358;BME280;6243;51.244;6.774;2023-02-15T07:24:08;148754.66;;;5.13;100.00
12358;BME280;6243;51.244;6.774;2023-02-15T07:26:34;148767.34;;;5.18;100.00
12358;BME280;6243;51.244;6.774;2023-02-15T07:28:59;148886.25;;;5.65;100.00
12358;BME280;6243;51.244;6.774;2023-02-15T07:31:25;148896.38;;;5.69;100.00
12358;BME280;6243;51.244;6.774;2023-02-15T07:33:50;148895.09;;;5.68;100.00
12358;BME280;6243;51.244;6.774;2023-02-15T07:36:17;148966.03;;;5.97;100.00
12358;BME280;6243;51.244;6.774;2023-02-15T07:38:43;149039.47;;;6.26;100.00
12358;BME280;6243;51.244;6.774;2023-02-15T07:41:10;149024.28;;;6.20;100.00
12358;BME280;6243;51.244;6.774;2023-02-15T07:43:37;149129.38;;;6.62;100.00
12358;BME280;6243;51.244;6.774;2023-02-15T07:46:04;149137.00;;;6.65;100.00
12358;BME280;6243;51.244;6.774;2023-02-15T07:48:30;148906.50;;;5.73;100.00
12358;BME280;6243;51.244;6.774;2023-02-15T07:50:58;148898.94;;;5.70;100.00
12358;BME280;6243;51.244;6.774;2023-02-15T07:53:25;148976.16;;;6.01;100.00
12358;BME280;6243;51.244;6.774;2023-02-15T07:55:51;148890.03;;;5.66;100.00
12358;BME280;6243;51.244;6.774;2023-02-15T07:58:16;149047.09;;;6.29;100.00
12358;BME280;6243;51.244;6.774;2023-02-15T08:00:42;149043.31;;;6.27;100.00
12358;BME280;6243;51.244;6.774;2023-02-15T08:03:07;149061.00;;;6.34;100.00
12358;BME280;6243;51.244;6.774;2023-02-15T08:05:33;149077.50;;;6.41;100.00
12358;BME280;6243;51.244;6.774;2023-02-15T08:07:58;149035.69;;;6.24;100.00
12358;BME280;6243;51.244;6.774;2023-02-15T08:10:25;149109.13;;;6.54;100.00
12358;BME280;6243;51.244;6.774;2023-02-15T08:12:51;149043.31;;;6.27;100.00
12358;BME280;6243;51.244;6.774;2023-02-15T08:15:16;149034.41;;;6.24;100.00
12358;BME280;6243;51.244;6.774;2023-02-15T08:17:42;149105.34;;;6.52;100.00
12358;BME280;6243;51.244;6.774;2023-02-15T08:20:08;149125.59;;;6.60;100.00
12358;BME280;6243;51.244;6.774;2023-02-15T08:22:33;149064.81;;;6.36;100.00
12358;BME280;6243;51.244;6.774;2023-02-15T08:24:59;149069.88;;;6.38;100.00
12358;BME280;6243;51.244;6.774;2023-02-15T08:27:26;149061.00;;;6.34;100.00
12358;BME280;6243;51.244;6.774;2023-02-15T08:29:51;149137.00;;;6.65;100.00
12358;BME280;6243;51.244;6.774;2023-02-15T08:32:17;149182.59;;;6.83;100.00
12358;BME280;6243;51.244;6.774;2023-02-15T08:34:42;149270.03;;;7.18;100.00
12358;BME280;6243;51.244;6.774;2023-02-15T08:37:08;149346.09;;;7.48;100.00
12358;BME280;6243;51.244;6.774;2023-02-15T08:39:34;149171.19;;;6.78;100.00
12358;BME280;6243;51.244;6.774;2023-02-15T08:41:59;149268.75;;;7.17;100.00
12358;BME280;6243;51.244;6.774;2023-02-15T08:44:27;149251.00;;;7.10;100.00
12358;BME280;6243;51.244;6.774;2023-02-15T08:46:52;149207.94;;;6.93;100.00
12358;BME280;6243;51.244;6.774;2023-02-15T08:49:20;149291.56;;;7.26;100.00
12358;BME280;6243;51.244;6.774;2023-02-15T08:51:47;149281.44;;;7.22;100.00
12358;BME280;6243;51.244;6.774;2023-02-15T08:54:14;149377.75;;;7.60;100.00
12358;BME280;6243;51.244;6.774;2023-02-15T08:56:41;149349.88;;;7.49;100.00
12358;BME280;6243;51.244;6.774;2023-02-15T08:59:11;149354.94;;;7.51;100.00
12358;BME280;6243;51.244;6.774;2023-02-15T09:01:38;149294.13;;;7.27;100.00
12358;BME280;6243;51.244;6.774;2023-02-15T09:04:06;149427.25;;;7.80;100.00
12358;BME280;6243;51.244;6.774;2023-02-15T09:06:32;149376.47;;;7.60;100.00
12358;BME280;6243;51.244;6.774;2023-02-15T09:08:58;149361.28;;;7.54;100.00
12358;BME280;6243;51.244;6.774;2023-02-15T09:11:25;149433.59;;;7.82;100.00
12358;BME280;6243;51.244;6.774;2023-02-15T09:13:53;149484.28;;;8.03;100.00
12358;BME280;6243;51.244;6.774;2023-02-15T09:16:20;149442.44;;;7.86;100.00
12358;BME280;6243;51.244;6.774;2023-02-15T09:18:50;149545.22;;;8.27;100.00
12358;BME280;6243;51.244;6.774;2023-02-15T09:21:17;149547.75;;;8.28;100.00
12358;BME280;6243;51.244;6.774;2023-02-15T09:23:45;149515.97;;;8.15;100.00
12358;BME280;6243;51.244;6.774;2023-02-15T09:26:12;149521.06;;;8.17;100.00
12358;BME280;6243;51.244;6.774;2023-02-15T09:28:38;149658.09;;;8.72;100.00
12358;BME280;6243;51.244;6.774;2023-02-15T09:31:06;149661.94;;;8.73;100.00
12358;BME280;6243;51.244;6.774;2023-02-15T09:33:33;149576.94;;;8.39;100.00
12358;BME280;6243;51.244;6.774;2023-02-15T09:36:00;149623.84;;;8.58;100.00
12358;BME280;6243;51.244;6.774;2023-02-15T09:38:26;149665.75;;;8.75;100.00
12358;BME280;6243;51.244;6.774;2023-02-15T09:41:02;149675.88;;;8.79;100.00
12358;BME280;6243;51.244;6.774;2023-02-15T09:43:38;149622.63;;;8.57;100.00
12358;BME280;6243;51.244;6.774;2023-02-15T09:46:23;149495.72;;;8.07;100.00
12358;BME280;6243;51.244;6.774;2023-02-15T09:48:56;149644.19;;;8.66;100.00
12358;BME280;6243;51.244;6.774;2023-02-15T09:51:42;149647.97;;;8.68;99.40
12358;BME280;6243;51.244;6.774;2023-02-15T09:54:32;149834.59;;;9.42;96.42
12358;BME280;6243;51.244;6.774;2023-02-15T09:57:08;149797.75;;;9.27;92.26
12358;BME280;6243;51.244;6.774;2023-02-15T09:59:42;149832.03;;;9.41;91.26
12358;BME280;6243;51.244;6.774;2023-02-15T10:02:20;149927.28;;;9.78;91.25
12358;BME280;6243;51.244;6.774;2023-02-15T10:04:58;149939.94;;;9.83;88.67
12358;BME280;6243;51.244;6.774;2023-02-15T10:07:38;149931.09;;;9.80;87.89
12358;BME280;6243;51.244;6.774;2023-02-15T10:10:16;149943.78;;;9.85;87.77
12358;BME280;6243;51.244;6.774;2023-02-15T10:12:54;149872.66;;;9.57;88.24
12358;BME280;6243;51.244;6.774;2023-02-15T10:15:30;150082.34;;;10.40;85.59
12358;BME280;6243;51.244;6.774;2023-02-15T10:18:09;150055.63;;;10.29;84.25
12358;BME280;6243;51.244;6.774;2023-02-15T10:20:45;149990.81;;;10.04;84.52
12358;BME280;6243;51.244;6.774;2023-02-15T10:23:31;150028.94;;;10.19;83.48
12358;BME280;6243;51.244;6.774;2023-02-15T10:26:06;150119.16;;;10.54;83.09
12358;BME280;6243;51.244;6.774;2023-02-15T10:28:45;150139.53;;;10.62;80.78
12358;BME280;6243;51.244;6.774;2023-02-15T10:31:20;150286.97;;;11.21;79.73
12358;BME280;6243;51.244;6.774;2023-02-15T10:33:48;150341.69;;;11.43;78.55
12358;BME280;6243;51.244;6.774;2023-02-15T10:36:31;150411.69;;;11.70;77.27
12358;BME280;6243;51.244;6.774;2023-02-15T10:39:07;150280.63;;;11.18;77.56
12358;BME280;6243;51.244;6.774;2023-02-15T10:41:43;150149.69;;;10.66;78.30
12358;BME280;6243;51.244;6.774;2023-02-15T10:44:25;150281.91;;;11.19;76.80
12358;BME280;6243;51.244;6.774;2023-02-15T10:50:06;150356.94;;;11.49;75.84
12358;BME280;6243;51.244;6.774;2023-02-15T10:52:46;150386.19;;;11.60;75.77
12358;BME280;6243;51.244;6.774;2023-02-15T10:55:20;150559.28;;;12.29;74.70
12358;BME280;6243;51.244;6.774;2023-02-15T10:57:54;150392.56;;;11.63;74.62
12358;BME280;6243;51.244;6.774;2023-02-15T11:00:27;150516.00;;;12.11;73.54
12358;BME280;6243;51.244;6.774;2023-02-15T11:03:05;150523.66;;;12.15;72.55
12358;BME280;6243;51.244;6.774;2023-02-15T11:05:42;150617.84;;;12.52;72.26
12358;BME280;6243;51.244;6.774;2023-02-15T11:08:11;150541.47;;;12.22;72.93
12358;BME280;6243;51.244;6.774;2023-02-15T11:10:42;150664.97;;;12.70;71.28
12358;BME280;6243;51.244;6.774;2023-02-15T11:13:13;150521.13;;;12.14;71.96
12358;BME280;6243;51.244;6.774;2023-02-15T11:15:42;150733.72;;;12.98;71.71
12358;BME280;6243;51.244;6.774;2023-02-15T11:18:13;150747.69;;;13.03;70.38
12358;BME280;6243;51.244;6.774;2023-02-15T11:20:45;150806.34;;;13.26;69.52
12358;BME280;6243;51.244;6.774;2023-02-15T11:23:15;150890.47;;;13.60;69.33
12358;BME280;6243;51.244;6.774;2023-02-15T11:25:45;150890.47;;;13.60;69.14
12358;BME280;6243;51.244;6.774;2023-02-15T11:28:18;150931.22;;;13.76;66.98
12358;BME280;6243;51.244;6.774;2023-02-15T11:30:48;150729.88;;;12.96;68.90
12358;BME280;6243;51.244;6.774;2023-02-15T11:33:18;150870.03;;;13.51;68.29
12358;BME280;6243;51.244;6.774;2023-02-15T11:35:51;150933.75;;;13.77;65.69
12358;BME280;6243;51.244;6.774;2023-02-15T11:38:21;150922.28;;;13.72;65.36
12358;BME280;6243;51.244;6.774;2023-02-15T11:40:51;151040.84;;;14.19;64.08
12358;BME280;6243;51.244;6.774;2023-02-15T11:43:22;150884.09;;;13.57;64.67
12358;BME280;6243;51.244;6.774;2023-02-15T11:45:50;150805.06;;;13.26;65.97
12358;BME280;6243;51.244;6.774;2023-02-15T11:48:15;150989.81;;;13.99;65.28
12358;BME280;6243;51.244;6.774;2023-02-15T11:50:42;150973.25;;;13.92;63.83
12358;BME280;6243;51.244;6.774;2023-02-15T11:53:11;151053.53;;;14.24;64.60
12358;BME280;6243;51.244;6.774;2023-02-15T11:55:37;151123.72;;;14.52;62.66
12358;BME280;6243;51.244;6.774;2023-02-15T11:58:15;151021.69;;;14.11;63.19
12358;BME280;6243;51.244;6.774;2023-02-15T12:00:43;150899.34;;;13.63;64.39
12358;BME280;6243;51.244;6.774;2023-02-15T12:03:14;150901.91;;;13.64;63.93
12358;BME280;6243;51.244;6.774;2023-02-15T12:05:45;150761.78;;;13.09;65.15
12358;BME280;6243;51.244;6.774;2023-02-15T12:08:17;150842.03;;;13.40;65.53
12358;BME280;6243;51.244;6.774;2023-02-15T12:10:57;150686.59;;;12.79;66.99
12358;BME280;6243;51.244;6.774;2023-02-15T12:13:24;150668.75;;;12.72;67.57
12358;BME280;6243;51.244;6.774;2023-02-15T12:15:52;150709.50;;;12.88;67.19
12358;BME280;6243;51.244;6.774;2023-02-15T12:18:33;150732.44;;;12.97;67.21
12358;BME280;6243;51.244;6.774;2023-02-15T12:21:00;150662.38;;;12.69;67.64
12358;BME280;6243;51.244;6.774;2023-02-15T12:23:28;150729.88;;;12.96;66.43
12358;BME280;6243;51.244;6.774;2023-02-15T12:25:55;150786.00;;;13.18;67.04
12358;BME280;6243;51.244;6.774;2023-02-15T12:28:26;150746.47;;;13.03;66.82
12358;BME280;6243;51.244;6.774;2023-02-15T12:30:56;150803.81;;;13.25;66.63
12358;BME280;6243;51.244;6.774;2023-02-15T12:33:27;150766.88;;;13.11;66.98
12358;BME280;6243;51.244;6.774;2023-02-15T12:36:00;150653.50;;;12.66;67.58
12358;BME280;6243;51.244;6.774;2023-02-15T12:38:27;150598.75;;;12.44;68.28
12358;BME280;6243;51.244;6.774;2023-02-15T12:41:01;150644.56;;;12.62;68.03
12358;BME280;6243;51.244;6.774;2023-02-15T12:43:32;150639.47;;;12.60;67.52
12358;BME280;6243;51.244;6.774;2023-02-15T12:46:17;150750.28;;;13.04;67.95
12358;BME280;6243;51.244;6.774;2023-02-15T12:48:44;150690.41;;;12.80;68.26
12358;BME280;6243;51.244;6.774;2023-02-15T12:51:14;150712.09;;;12.89;67.26
12358;BME280;6243;51.244;6.774;2023-02-15T12:53:40;150797.44;;;13.23;66.88
12358;BME280;6243;51.244;6.774;2023-02-15T12:56:08;150807.63;;;13.27;66.95
12358;BME280;6243;51.244;6.774;2023-02-15T12:58:36;150732.44;;;12.97;67.40
12358;BME280;6243;51.244;6.774;2023-02-15T13:01:14;150709.50;;;12.88;67.38
12358;BME280;6243;51.244;6.774;2023-02-15T13:03:55;150712.09;;;12.89;67.54
12358;BME280;6243;51.244;6.774;2023-02-15T13:06:22;150784.72;;;13.18;66.86
12358;BME280;6243;51.244;6.774;2023-02-15T13:08:49;150806.34;;;13.26;66.71
12358;BME280;6243;51.244;6.774;2023-02-15T13:11:21;150747.69;;;13.03;66.42
12358;BME280;6243;51.244;6.774;2023-02-15T13:13:53;150738.81;;;13.00;67.09
12358;BME280;6243;51.244;6.774;2023-02-15T13:16:26;150715.88;;;12.91;66.25
12358;BME280;6243;51.244;6.774;2023-02-15T13:18:54;150777.03;;;13.15;66.62